sensor_id;sensor_type;location;lat;lon;timestamp;temperature;humidity
64062;DHT22;50308;47.438;-1.528;2022-12-18T10:26:15;6.40;70.30
64062;DHT22;50308;47.438;-1.528;2022-12-18T10:28:41;6.40;70.60
64062;DHT22;50308;47.438;-1.528;2022-12-18T10:31:07;6.40;70.10
64062;DHT22;50308;47.438;-1.528;2022-12-18T10:33:37;6.40;70.60
64062;DHT22;50308;47.438;-1.528;2022-12-18T10:36:02;6.40;71.00
64062;DHT22;50308;47.438;-1.528;2022-12-18T10:38:29;6.40;70.40
64062;DHT22;50308;47.438;-1.528;2022-12-18T10:41:02;6.40;70.60
64062;DHT22;50308;47.438;-1.528;2022-12-18T10:43:35;6.40;71.50
64062;DHT22;50308;47.438;-1.528;2022-12-18T10:48:31;6.50;71.40
64062;DHT22;50308;47.438;-1.528;2022-12-18T10:50:57;6.50;70.90
64062;DHT22;50308;47.438;-1.528;2022-12-18T10:53:26;6.50;70.40
64062;DHT22;50308;47.438;-1.528;2022-12-18T10:55:53;6.50;70.40
64062;DHT22;50308;47.438;-1.528;2022-12-18T10:58:24;6.50;70.30
64062;DHT22;50308;47.438;-1.528;2022-12-18T11:01:07;6.60;70.30
64062;DHT22;50308;47.438;-1.528;2022-12-18T11:03:34;6.60;71.50
64062;DHT22;50308;47.438;-1.528;2022-12-18T11:08:38;6.60;70.70
64062;DHT22;50308;47.438;-1.528;2022-12-18T11:11:04;6.70;71.50
64062;DHT22;50308;47.438;-1.528;2022-12-18T11:13:32;6.70;71.40
64062;DHT22;50308;47.438;-1.528;2022-12-18T11:15:58;6.70;71.30
64062;DHT22;50308;47.438;-1.528;2022-12-18T11:18:28;6.80;71.10
64062;DHT22;50308;47.438;-1.528;2022-12-18T11:21:08;6.70;70.90
64062;DHT22;50308;47.438;-1.528;2022-12-18T11:23:34;6.70;71.20
64062;DHT22;50308;47.438;-1.528;2022-12-18T11:26:01;6.80;71.20
64062;DHT22;50308;47.438;-1.528;2022-12-18T11:28:29;6.80;71.40
64062;DHT22;50308;47.438;-1.528;2022-12-18T11:33:44;6.80;71.00
64062;DHT22;50308;47.438;-1.528;2022-12-18T11:36:11;6.80;71.20
64062;DHT22;50308;47.438;-1.528;2022-12-18T11:38:41;6.80;71.40
64062;DHT22;50308;47.438;-1.528;2022-12-18T11:46:15;6.80;71.20
64062;DHT22;50308;47.438;-1.528;2022-12-18T11:49:06;6.80;71.20
64062;DHT22;50308;47.438;-1.528;2022-12-18T11:51:29;6.80;71.30
64062;DHT22;50308;47.438;-1.528;2022-12-18T11:53:57;6.90;71.60
64062;DHT22;50308;47.438;-1.528;2022-12-18T11:59:15;6.90;71.30
64062;DHT22;50308;47.438;-1.528;2022-12-18T12:14:33;7.00;72.70
64062;DHT22;50308;47.438;-1.528;2022-12-18T12:22:27;7.00;73.20
64062;DHT22;50308;47.438;-1.528;2022-12-18T12:30:08;7.00;72.90
64062;DHT22;50308;47.438;-1.528;2022-12-18T12:35:09;7.10;72.50
64062;DHT22;50308;47.438;-1.528;2022-12-18T12:40:02;7.10;72.50
64062;DHT22;50308;47.438;-1.528;2022-12-18T12:42:32;7.10;72.60
64062;DHT22;50308;47.438;-1.528;2022-12-18T12:45:21;7.10;73.00
64062;DHT22;50308;47.438;-1.528;2022-12-18T12:47:48;7.10;72.90
64062;DHT22;50308;47.438;-1.528;2022-12-18T12:50:16;7.10;73.40
64062;DHT22;50308;47.438;-1.528;2022-12-18T12:52:44;7.10;73.10
64062;DHT22;50308;47.438;-1.528;2022-12-18T12:55:16;7.10;73.50
64062;DHT22;50308;47.438;-1.528;2022-12-18T12:57:54;7.20;74.10
64062;DHT22;50308;47.438;-1.528;2022-12-18T13:00:21;7.10;74.00
64062;DHT22;50308;47.438;-1.528;2022-12-18T13:12:51;7.20;74.20
64062;DHT22;50308;47.438;-1.528;2022-12-18T13:17:48;7.20;74.70
64062;DHT22;50308;47.438;-1.528;2022-12-18T13:20:14;7.20;74.90
64062;DHT22;50308;47.438;-1.528;2022-12-18T13:22:42;7.20;74.80
64062;DHT22;50308;47.438;-1.528;2022-12-18T13:28:10;7.20;74.10
64062;DHT22;50308;47.438;-1.528;2022-12-18T13:45:45;7.30;74.50
64062;DHT22;50308;47.438;-1.528;2022-12-18T13:48:20;7.30;75.20
64062;DHT22;50308;47.438;-1.528;2022-12-18T13:50:56;7.30;73.70
64062;DHT22;50308;47.438;-1.528;2022-12-18T13:53:24;7.30;73.80
64062;DHT22;50308;47.438;-1.528;2022-12-18T13:55:51;7.30;74.00
64062;DHT22;50308;47.438;-1.528;2022-12-18T13:58:17;7.30;74.10
64062;DHT22;50308;47.438;-1.528;2022-12-18T14:00:43;7.30;74.60
64062;DHT22;50308;47.438;-1.528;2022-12-18T14:03:22;7.30;74.10
64062;DHT22;50308;47.438;-1.528;2022-12-18T14:05:56;7.30;73.70
64062;DHT22;50308;47.438;-1.528;2022-12-18T14:08:22;7.40;73.80
64062;DHT22;50308;47.438;-1.528;2022-12-18T14:10:48;7.40;73.90
64062;DHT22;50308;47.438;-1.528;2022-12-18T14:13:23;7.40;73.80
64062;DHT22;50308;47.438;-1.528;2022-12-18T14:15:49;7.40;74.10
64062;DHT22;50308;47.438;-1.528;2022-12-18T14:18:31;7.40;74.10
64062;DHT22;50308;47.438;-1.528;2022-12-18T14:20:58;7.40;74.10
64062;DHT22;50308;47.438;-1.528;2022-12-18T14:23:29;7.40;74.10
64062;DHT22;50308;47.438;-1.528;2022-12-18T14:25:55;7.40;75.10
64062;DHT22;50308;47.438;-1.528;2022-12-18T14:28:20;7.40;75.10
64062;DHT22;50308;47.438;-1.528;2022-12-18T14:30:49;7.40;75.30
64062;DHT22;50308;47.438;-1.528;2022-12-18T14:33:17;7.40;75.30
64062;DHT22;50308;47.438;-1.528;2022-12-18T14:38:29;7.40;74.80
64062;DHT22;50308;47.438;-1.528;2022-12-18T14:40:59;7.40;74.20
64062;DHT22;50308;47.438;-1.528;2022-12-18T14:43:26;7.50;74.80
64062;DHT22;50308;47.438;-1.528;2022-12-18T14:45:52;7.40;75.20
64062;DHT22;50308;47.438;-1.528;2022-12-18T14:48:21;7.50;75.10
64062;DHT22;50308;47.438;-1.528;2022-12-18T14:51:23;7.50;74.80
64062;DHT22;50308;47.438;-1.528;2022-12-18T14:53:43;7.50;75.90
64062;DHT22;50308;47.438;-1.528;2022-12-18T14:56:14;7.50;76.40
64062;DHT22;50308;47.438;-1.528;2022-12-18T14:58:43;7.50;74.80
64062;DHT22;50308;47.438;-1.528;2022-12-18T15:01:09;7.50;75.70
64062;DHT22;50308;47.438;-1.528;2022-12-18T15:03:43;7.50;75.70
64062;DHT22;50308;47.438;-1.528;2022-12-18T15:06:15;7.50;76.00
64062;DHT22;50308;47.438;-1.528;2022-12-18T15:08:41;7.50;75.70
64062;DHT22;50308;47.438;-1.528;2022-12-18T15:11:26;7.50;74.80
64062;DHT22;50308;47.438;-1.528;2022-12-18T15:13:52;7.50;74.40
64062;DHT22;50308;47.438;-1.528;2022-12-18T15:16:18;7.50;75.60
64062;DHT22;50308;47.438;-1.528;2022-12-18T15:18:43;7.50;75.30
64062;DHT22;50308;47.438;-1.528;2022-12-18T15:21:11;7.60;75.10
64062;DHT22;50308;47.438;-1.528;2022-12-18T15:26:06;7.50;74.20
64062;DHT22;50308;47.438;-1.528;2022-12-18T15:28:36;7.50;74.90
64062;DHT22;50308;47.438;-1.528;2022-12-18T15:31:17;7.60;74.60
64062;DHT22;50308;47.438;-1.528;2022-12-18T15:33:59;7.60;75.70
64062;DHT22;50308;47.438;-1.528;2022-12-18T15:36:29;7.60;75.70
64062;DHT22;50308;47.438;-1.528;2022-12-18T15:38:55;7.60;75.10
64062;DHT22;50308;47.438;-1.528;2022-12-18T15:41:22;7.60;74.30
64062;DHT22;50308;47.438;-1.528;2022-12-18T15:43:49;7.60;74.70
64062;DHT22;50308;47.438;-1.528;2022-12-18T15:46:22;7.60;75.20
64062;DHT22;50308;47.438;-1.528;2022-12-18T15:48:51;7.60;74.90
64062;DHT22;50308;47.438;-1.528;2022-12-18T15:51:18;7.60;74.90
64062;DHT22;50308;47.438;-1.528;2022-12-18T15:53:46;7.60;74.70
64062;DHT22;50308;47.438;-1.528;2022-12-18T15:56:12;7.60;75.70
64062;DHT22;50308;47.438;-1.528;2022-12-18T15:58:56;7.60;75.90
64062;DHT22;50308;47.438;-1.528;2022-12-18T16:01:23;7.60;74.90
64062;DHT22;50308;47.438;-1.528;2022-12-18T16:03:50;7.60;75.30
64062;DHT22;50308;47.438;-1.528;2022-12-18T16:06:15;7.60;75.40
64062;DHT22;50308;47.438;-1.528;2022-12-18T16:08:41;7.60;74.90
64062;DHT22;50308;47.438;-1.528;2022-12-18T16:11:08;7.60;74.40
64062;DHT22;50308;47.438;-1.528;2022-12-18T16:13:42;7.60;75.40
64062;DHT22;50308;47.438;-1.528;2022-12-18T16:16:08;7.60;75.30
64062;DHT22;50308;47.438;-1.528;2022-12-18T16:18:33;7.60;75.80
64062;DHT22;50308;47.438;-1.528;2022-12-18T16:20:59;7.60;75.20
64062;DHT22;50308;47.438;-1.528;2022-12-18T16:23:24;7.60;75.70
64062;DHT22;50308;47.438;-1.528;2022-12-18T16:25:50;7.70;76.10
64062;DHT22;50308;47.438;-1.528;2022-12-18T16:28:16;7.60;76.40
64062;DHT22;50308;47.438;-1.528;2022-12-18T16:30:42;7.60;76.80
64062;DHT22;50308;47.438;-1.528;2022-12-18T16:33:08;7.60;77.20
64062;DHT22;50308;47.438;-1.528;2022-12-18T16:35:34;7.70;77.00
64062;DHT22;50308;47.438;-1.528;2022-12-18T16:38:02;7.70;76.70
64062;DHT22;50308;47.438;-1.528;2022-12-18T16:40:27;7.70;76.80
64062;DHT22;50308;47.438;-1.528;2022-12-18T16:42:53;7.70;76.80
64062;DHT22;50308;47.438;-1.528;2022-12-18T16:45:19;7.70;76.80
64062;DHT22;50308;47.438;-1.528;2022-12-18T16:47:44;7.70;76.60
64062;DHT22;50308;47.438;-1.528;2022-12-18T16:50:10;7.70;76.50
64062;DHT22;50308;47.438;-1.528;2022-12-18T16:52:36;7.70;76.30
64062;DHT22;50308;47.438;-1.528;2022-12-18T16:55:02;7.70;76.80
64062;DHT22;50308;47.438;-1.528;2022-12-18T16:57:28;7.70;75.80
64062;DHT22;50308;47.438;-1.528;2022-12-18T16:59:54;7.70;75.70
64062;DHT22;50308;47.438;-1.528;2022-12-18T17:02:23;7.70;75.40
64062;DHT22;50308;47.438;-1.528;2022-12-18T17:04:51;7.70;76.90
64062;DHT22;50308;47.438;-1.528;2022-12-18T17:07:17;7.80;76.50
64062;DHT22;50308;47.438;-1.528;2022-12-18T17:09:43;7.70;76.60
64062;DHT22;50308;47.438;-1.528;2022-12-18T17:12:08;7.70;77.00
64062;DHT22;50308;47.438;-1.528;2022-12-18T17:14:34;7.70;76.90
64062;DHT22;50308;47.438;-1.528;2022-12-18T17:17:00;7.70;76.90
64062;DHT22;50308;47.438;-1.528;2022-12-18T17:19:26;7.70;77.00
64062;DHT22;50308;47.438;-1.528;2022-12-18T17:21:52;7.80;77.40
64062;DHT22;50308;47.438;-1.528;2022-12-18T17:24:19;7.80;76.20
64062;DHT22;50308;47.438;-1.528;2022-12-18T17:26:44;7.80;76.20
64062;DHT22;50308;47.438;-1.528;2022-12-18T17:29:14;7.80;76.90
64062;DHT22;50308;47.438;-1.528;2022-12-18T17:31:40;7.80;77.10
64062;DHT22;50308;47.438;-1.528;2022-12-18T17:34:05;7.80;77.10
64062;DHT22;50308;47.438;-1.528;2022-12-18T17:36:31;7.80;76.80
64062;DHT22;50308;47.438;-1.528;2022-12-18T17:38:57;7.80;77.10
64062;DHT22;50308;47.438;-1.528;2022-12-18T17:41:23;7.80;77.80
64062;DHT22;50308;47.438;-1.528;2022-12-18T17:43:52;7.80;77.40
64062;DHT22;50308;47.438;-1.528;2022-12-18T17:46:18;7.80;77.50
64062;DHT22;50308;47.438;-1.528;2022-12-18T17:48:44;7.80;76.40
64062;DHT22;50308;47.438;-1.528;2022-12-18T17:51:10;7.80;78.00
64062;DHT22;50308;47.438;-1.528;2022-12-18T17:53:36;7.80;78.00
64062;DHT22;50308;47.438;-1.528;2022-12-18T17:56:03;7.80;77.40
64062;DHT22;50308;47.438;-1.528;2022-12-18T17:58:31;7.80;77.50
64062;DHT22;50308;47.438;-1.528;2022-12-18T18:00:56;7.80;77.90
64062;DHT22;50308;47.438;-1.528;2022-12-18T18:03:22;7.90;78.10
64062;DHT22;50308;47.438;-1.528;2022-12-18T18:05:48;7.90;77.90
64062;DHT22;50308;47.438;-1.528;2022-12-18T18:08:13;7.90;78.10
64062;DHT22;50308;47.438;-1.528;2022-12-18T18:10:39;7.90;78.40
64062;DHT22;50308;47.438;-1.528;2022-12-18T18:13:06;7.90;78.70
64062;DHT22;50308;47.438;-1.528;2022-12-18T18:15:56;7.90;77.60
64062;DHT22;50308;47.438;-1.528;2022-12-18T18:18:22;7.90;78.50
64062;DHT22;50308;47.438;-1.528;2022-12-18T18:20:48;7.90;78.50
64062;DHT22;50308;47.438;-1.528;2022-12-18T18:23:14;7.90;78.00
64062;DHT22;50308;47.438;-1.528;2022-12-18T18:25:39;7.90;78.60
64062;DHT22;50308;47.438;-1.528;2022-12-18T18:28:05;8.00;79.20
64062;DHT22;50308;47.438;-1.528;2022-12-18T18:30:30;7.90;78.10
64062;DHT22;50308;47.438;-1.528;2022-12-18T18:32:56;8.00;74.80
64062;DHT22;50308;47.438;-1.528;2022-12-18T18:35:21;8.00;78.60
64062;DHT22;50308;47.438;-1.528;2022-12-18T18:37:47;8.00;78.70
64062;DHT22;50308;47.438;-1.528;2022-12-18T18:40:13;8.00;77.60
64062;DHT22;50308;47.438;-1.528;2022-12-18T18:42:38;8.00;79.10
64062;DHT22;50308;47.438;-1.528;2022-12-18T18:45:04;8.00;75.90
64062;DHT22;50308;47.438;-1.528;2022-12-18T18:47:30;8.00;78.80
64062;DHT22;50308;47.438;-1.528;2022-12-18T18:49:55;8.00;78.90
64062;DHT22;50308;47.438;-1.528;2022-12-18T18:52:21;8.00;77.80
64062;DHT22;50308;47.438;-1.528;2022-12-18T18:54:47;8.10;76.00
64062;DHT22;50308;47.438;-1.528;2022-12-18T18:57:13;8.00;75.30
64062;DHT22;50308;47.438;-1.528;2022-12-18T18:59:39;8.10;74.50
64062;DHT22;50308;47.438;-1.528;2022-12-18T19:02:05;8.10;78.80
64062;DHT22;50308;47.438;-1.528;2022-12-18T19:04:34;8.10;76.70
64062;DHT22;50308;47.438;-1.528;2022-12-18T19:07:00;8.10;77.20
64062;DHT22;50308;47.438;-1.528;2022-12-18T19:09:26;8.10;75.70
64062;DHT22;50308;47.438;-1.528;2022-12-18T19:11:52;8.10;79.00
64062;DHT22;50308;47.438;-1.528;2022-12-18T19:14:36;8.10;75.40
64062;DHT22;50308;47.438;-1.528;2022-12-18T19:17:02;8.10;74.50
64062;DHT22;50308;47.438;-1.528;2022-12-18T19:19:27;8.20;78.30
64062;DHT22;50308;47.438;-1.528;2022-12-18T19:21:53;8.20;78.40
64062;DHT22;50308;47.438;-1.528;2022-12-18T19:24:19;8.10;77.60
64062;DHT22;50308;47.438;-1.528;2022-12-18T19:26:44;8.10;76.20
64062;DHT22;50308;47.438;-1.528;2022-12-18T19:29:10;8.20;77.90
64062;DHT22;50308;47.438;-1.528;2022-12-18T19:31:36;8.20;76.40
64062;DHT22;50308;47.438;-1.528;2022-12-18T19:34:02;8.20;78.80
64062;DHT22;50308;47.438;-1.528;2022-12-18T19:36:29;8.20;78.20
64062;DHT22;50308;47.438;-1.528;2022-12-18T19:38:56;8.20;75.80
64062;DHT22;50308;47.438;-1.528;2022-12-18T19:41:22;8.20;75.20
64062;DHT22;50308;47.438;-1.528;2022-12-18T19:43:48;8.20;78.30
64062;DHT22;50308;47.438;-1.528;2022-12-18T19:46:15;8.20;74.60
64062;DHT22;50308;47.438;-1.528;2022-12-18T19:48:41;8.20;73.90
64062;DHT22;50308;47.438;-1.528;2022-12-18T19:51:08;8.20;76.00
64062;DHT22;50308;47.438;-1.528;2022-12-18T19:53:34;8.30;74.60
64062;DHT22;50308;47.438;-1.528;2022-12-18T19:56:04;8.20;75.90
64062;DHT22;50308;47.438;-1.528;2022-12-18T19:58:30;8.30;73.30
64062;DHT22;50308;47.438;-1.528;2022-12-18T20:00:55;8.30;76.00
64062;DHT22;50308;47.438;-1.528;2022-12-18T20:03:21;8.30;73.90
64062;DHT22;50308;47.438;-1.528;2022-12-18T20:05:46;8.30;74.60
64062;DHT22;50308;47.438;-1.528;2022-12-18T20:08:12;8.30;74.10
64062;DHT22;50308;47.438;-1.528;2022-12-18T20:10:37;8.30;73.90
64062;DHT22;50308;47.438;-1.528;2022-12-18T20:13:03;8.30;77.00
64062;DHT22;50308;47.438;-1.528;2022-12-18T20:15:28;8.30;74.40
64062;DHT22;50308;47.438;-1.528;2022-12-18T20:17:54;8.30;74.60
64062;DHT22;50308;47.438;-1.528;2022-12-18T20:20:19;8.30;73.40
64062;DHT22;50308;47.438;-1.528;2022-12-18T20:22:45;8.30;74.30
64062;DHT22;50308;47.438;-1.528;2022-12-18T20:25:11;8.30;74.50
64062;DHT22;50308;47.438;-1.528;2022-12-18T20:27:37;8.30;74.60
64062;DHT22;50308;47.438;-1.528;2022-12-18T20:30:02;8.30;77.40
64062;DHT22;50308;47.438;-1.528;2022-12-18T20:32:28;8.30;73.40
64062;DHT22;50308;47.438;-1.528;2022-12-18T20:34:53;8.40;74.10
64062;DHT22;50308;47.438;-1.528;2022-12-18T20:37:19;8.40;74.20
64062;DHT22;50308;47.438;-1.528;2022-12-18T20:39:44;8.30;73.10
64062;DHT22;50308;47.438;-1.528;2022-12-18T20:42:10;8.30;74.60
64062;DHT22;50308;47.438;-1.528;2022-12-18T20:44:36;8.40;75.00
64062;DHT22;50308;47.438;-1.528;2022-12-18T20:47:01;8.40;74.70
64062;DHT22;50308;47.438;-1.528;2022-12-18T20:49:27;8.40;76.60
64062;DHT22;50308;47.438;-1.528;2022-12-18T20:51:54;8.40;73.70
64062;DHT22;50308;47.438;-1.528;2022-12-18T20:54:21;8.40;76.40
64062;DHT22;50308;47.438;-1.528;2022-12-18T20:56:46;8.40;76.20
64062;DHT22;50308;47.438;-1.528;2022-12-18T20:59:12;8.40;74.70
64062;DHT22;50308;47.438;-1.528;2022-12-18T21:01:38;8.40;75.40
64062;DHT22;50308;47.438;-1.528;2022-12-18T21:04:04;8.40;75.20
64062;DHT22;50308;47.438;-1.528;2022-12-18T21:06:29;8.40;78.10
64062;DHT22;50308;47.438;-1.528;2022-12-18T21:08:55;8.40;77.40
64062;DHT22;50308;47.438;-1.528;2022-12-18T21:14:08;8.40;73.70
64062;DHT22;50308;47.438;-1.528;2022-12-18T21:24:20;8.40;74.20
